createdAt,value
2018-08-14T00:01:02.544Z,3.47
2018-08-14T00:02:07.732Z,4.05
2018-08-14T00:03:15.932Z,3.40
2018-08-14T00:04:20.734Z,3.50
2018-08-14T00:05:25.452Z,3.10
2018-08-14T00:08:26.407Z,3.75
2018-08-14T00:09:30.926Z,4.35
2018-08-14T00:10:35.848Z,3.92
2018-08-14T00:11:40.253Z,3.20
2018-08-14T00:12:45.501Z,4.45
2018-08-14T00:13:50.035Z,3.52
2018-08-14T00:14:53.982Z,3.95
2018-08-14T00:15:59.235Z,3.98
2018-08-14T00:17:03.706Z,4.05
2018-08-14T00:18:08.507Z,3.98
2018-08-14T00:19:13.167Z,4.17
2018-08-14T00:20:18.996Z,3.75
2018-08-14T00:21:23.263Z,3.60
2018-08-14T00:22:28.434Z,4.30
2018-08-14T00:23:34.022Z,5.33
2018-08-14T00:24:38.591Z,4.78
2018-08-14T00:25:43.080Z,3.95
2018-08-14T00:26:47.678Z,4.67
2018-08-14T00:27:53.716Z,5.05
2018-08-14T00:28:58.781Z,5.15
2018-08-14T00:30:07.495Z,5.08
2018-08-14T00:31:13.131Z,5.12
2018-08-14T00:32:18.991Z,5.35
2018-08-14T00:33:23.832Z,5.17
2018-08-14T00:34:28.571Z,5.53
2018-08-14T00:35:33.116Z,5.10
2018-08-14T00:36:37.628Z,4.42
2018-08-14T00:37:42.382Z,6.10
2018-08-14T00:38:47.443Z,6.10
2018-08-14T00:39:54.658Z,5.67
2018-08-14T00:40:59.069Z,4.80
2018-08-14T00:42:03.545Z,5.12
2018-08-14T00:43:09.808Z,6.28
2018-08-14T00:44:14.337Z,6.10
2018-08-14T00:45:20.018Z,6.17
2018-08-14T00:46:24.266Z,6.37
2018-08-14T00:47:28.908Z,6.45
2018-08-14T00:48:34.139Z,5.35
2018-08-14T00:49:38.456Z,5.37
2018-08-14T00:50:42.953Z,6.35
2018-08-14T00:51:47.363Z,5.87
2018-08-14T00:52:51.977Z,5.70
2018-08-14T00:53:56.492Z,5.85
2018-08-14T00:55:02.534Z,7.05
2018-08-14T00:57:09.824Z,4.90
2018-08-14T00:58:14.729Z,5.50
2018-08-14T00:59:19.208Z,5.90
2018-08-14T01:00:26.008Z,5.97
2018-08-14T01:01:30.341Z,6.05
2018-08-14T01:02:35.760Z,5.90
2018-08-14T01:03:40.145Z,6.35
2018-08-14T01:04:44.652Z,5.97
2018-08-14T01:05:49.143Z,6.33
2018-08-14T01:06:54.048Z,7.50
2018-08-14T01:07:58.915Z,7.15
2018-08-14T01:09:03.954Z,6.95
2018-08-14T01:10:12.022Z,6.15
2018-08-14T01:11:16.476Z,8.03
2018-08-14T01:12:21.670Z,7.62
2018-08-14T01:13:26.217Z,7.53
2018-08-14T01:14:31.974Z,7.17
2018-08-14T01:15:36.499Z,8.25
2018-08-14T01:16:40.965Z,6.47
2018-08-14T01:17:45.913Z,7.15
2018-08-14T01:18:50.714Z,7.65
2018-08-14T01:19:55.542Z,7.62
2018-08-14T01:21:00.163Z,7.55
2018-08-14T01:22:04.625Z,7.62
2018-08-14T01:23:08.980Z,8.03
2018-08-14T01:24:13.586Z,7.42
2018-08-14T01:25:18.273Z,7.83
2018-08-14T01:26:22.866Z,6.85
2018-08-14T01:27:27.855Z,7.50
2018-08-14T01:28:32.475Z,7.80
2018-08-14T01:29:37.152Z,8.05
2018-08-14T01:30:41.592Z,7.75
2018-08-14T01:31:46.109Z,8.55
2018-08-14T01:32:50.705Z,8.48
2018-08-14T01:33:55.141Z,8.75
2018-08-14T01:34:59.529Z,8.15
2018-08-14T01:36:04.222Z,8.33
2018-08-14T01:37:08.904Z,9.65
2018-08-14T01:38:13.212Z,8.25
2018-08-14T01:39:17.590Z,8.25
2018-08-14T01:40:21.863Z,8.95
2018-08-14T01:41:26.673Z,8.20
2018-08-14T01:42:31.809Z,8.20
2018-08-14T01:43:37.215Z,8.85
2018-08-14T01:44:41.786Z,8.35
2018-08-14T01:45:46.723Z,8.70
2018-08-14T01:46:51.119Z,9.40
2018-08-14T01:47:55.509Z,9.63
2018-08-14T01:48:59.755Z,9.48
2018-08-14T01:50:06.210Z,8.50
2018-08-14T01:51:10.612Z,9.70
2018-08-14T01:52:15.162Z,9.43
2018-08-14T01:53:19.823Z,8.70
2018-08-14T01:54:24.908Z,8.63
2018-08-14T01:55:29.321Z,9.90
2018-08-14T01:56:33.653Z,8.50
2018-08-14T01:57:38.214Z,10.23
2018-08-14T01:58:42.852Z,10.10
2018-08-14T01:59:47.386Z,8.45
2018-08-14T02:00:52.036Z,7.92
2018-08-14T02:01:56.296Z,9.23
2018-08-14T02:03:00.737Z,8.43
2018-08-14T02:04:05.169Z,9.00
2018-08-14T02:05:10.644Z,9.45
2018-08-14T02:06:15.307Z,9.70
2018-08-14T02:07:20.253Z,9.08
2018-08-14T02:08:24.904Z,8.50
2018-08-14T02:09:29.229Z,9.45
2018-08-14T02:10:33.597Z,9.20
2018-08-14T02:11:38.268Z,10.32
2018-08-14T02:12:42.706Z,9.95
2018-08-14T02:13:47.509Z,9.95
2018-08-14T02:14:52.710Z,8.75
2018-08-14T02:15:57.041Z,9.03
2018-08-14T02:17:02.059Z,9.95
2018-08-14T02:18:07.809Z,8.93
2018-08-14T02:19:12.529Z,9.05
2018-08-14T02:20:20.209Z,9.93
2018-08-14T02:21:24.595Z,8.58
2018-08-14T02:22:29.111Z,8.60
2018-08-14T02:23:33.551Z,10.38
2018-08-14T02:24:38.228Z,9.43
2018-08-14T02:25:42.662Z,8.80
2018-08-14T02:26:47.450Z,8.78
2018-08-14T02:27:52.424Z,9.15
2018-08-14T02:28:57.337Z,8.18
2018-08-14T02:30:02.098Z,9.70
2018-08-14T02:31:06.654Z,9.33
2018-08-14T02:32:11.135Z,8.55
2018-08-14T02:33:15.752Z,9.03
2018-08-14T02:34:20.143Z,8.50
2018-08-14T02:35:24.465Z,8.50
2018-08-14T02:36:28.890Z,9.18
2018-08-14T02:37:33.894Z,8.48
2018-08-14T02:38:38.502Z,9.30
2018-08-14T02:39:44.306Z,10.45
2018-08-14T02:40:48.704Z,9.08
2018-08-14T02:41:53.113Z,8.48
2018-08-14T02:42:58.381Z,8.98
2018-08-14T02:44:02.873Z,8.78
2018-08-14T02:45:10.537Z,9.60
2018-08-14T02:46:14.948Z,9.08
2018-08-14T02:47:19.367Z,9.23
2018-08-14T02:48:23.772Z,8.53
2018-08-14T02:49:28.024Z,8.85
2018-08-14T02:50:32.449Z,8.98
2018-08-14T02:51:37.020Z,7.80
2018-08-14T02:52:42.136Z,9.05
2018-08-14T02:53:46.324Z,8.48
2018-08-14T02:54:50.848Z,8.23
2018-08-14T02:55:55.154Z,8.60
2018-08-14T02:56:59.369Z,9.25
2018-08-14T02:58:03.918Z,8.35
2018-08-14T02:59:08.506Z,8.53
2018-08-14T03:00:18.304Z,9.43
2018-08-14T03:01:23.354Z,8.80
2018-08-14T03:02:29.032Z,9.95
2018-08-14T03:03:33.584Z,9.30
2018-08-14T03:04:37.958Z,8.65
2018-08-14T03:05:42.300Z,8.63
2018-08-14T03:06:46.829Z,9.50
2018-08-14T03:07:51.338Z,9.28
2018-08-14T03:08:55.783Z,9.45
2018-08-14T03:10:01.474Z,8.65
2018-08-14T03:11:05.826Z,9.35
2018-08-14T03:12:10.380Z,8.18
2018-08-14T03:13:14.840Z,8.90
2018-08-14T03:14:19.371Z,8.70
2018-08-14T03:15:23.934Z,9.23
2018-08-14T03:16:28.547Z,8.65
2018-08-14T03:17:33.191Z,8.68
2018-08-14T03:18:37.589Z,8.60
2018-08-14T03:19:41.954Z,10.48
2018-08-14T03:20:46.308Z,9.13
2018-08-14T03:21:50.836Z,9.00
2018-08-14T03:22:55.410Z,9.80
2018-08-14T03:24:00.280Z,8.48
2018-08-14T03:25:06.052Z,9.75
2018-08-14T03:26:10.439Z,8.83
2018-08-14T03:27:14.742Z,8.75
2018-08-14T03:28:19.151Z,8.25
2018-08-14T03:29:23.654Z,9.23
2018-08-14T03:30:28.096Z,10.72
2018-08-14T03:31:32.477Z,8.90
2018-08-14T03:32:37.781Z,9.33
2018-08-14T03:33:42.316Z,7.95
2018-08-14T03:34:47.162Z,10.28
2018-08-14T03:35:52.454Z,8.60
2018-08-14T03:36:57.289Z,9.73
2018-08-14T03:38:01.891Z,8.98
2018-08-14T03:39:10.565Z,10.48
2018-08-14T03:40:19.851Z,9.98
2018-08-14T03:41:24.742Z,9.98
2018-08-14T03:42:31.576Z,8.90
2018-08-14T03:43:36.281Z,10.20
2018-08-14T03:44:41.021Z,9.38
2018-08-14T03:45:45.349Z,9.18
2018-08-14T03:46:49.969Z,11.08
2018-08-14T03:47:54.323Z,9.93
2018-08-14T03:48:58.752Z,9.83
2018-08-14T03:50:03.797Z,9.18
2018-08-14T03:51:08.533Z,9.10
2018-08-14T03:52:12.841Z,8.60
2018-08-14T03:53:17.461Z,9.90
2018-08-14T03:54:22.168Z,9.75
2018-08-14T03:55:26.542Z,10.50
2018-08-14T03:56:30.960Z,10.30
2018-08-14T03:57:35.398Z,9.70
2018-08-14T03:58:39.828Z,11.45
2018-08-14T03:59:44.602Z,11.30
2018-08-14T04:00:49.318Z,11.43
2018-08-14T04:01:53.739Z,9.03
2018-08-14T04:02:58.541Z,9.75
2018-08-14T04:04:03.231Z,9.73
2018-08-14T04:05:07.702Z,10.23
2018-08-14T04:06:12.342Z,8.78
2018-08-14T04:07:16.754Z,10.00
2018-08-14T04:08:21.132Z,9.83
2018-08-14T04:09:25.760Z,9.68
2018-08-14T04:10:30.126Z,9.30
2018-08-14T04:11:34.717Z,9.85
2018-08-14T04:12:39.338Z,10.78
2018-08-14T04:13:45.714Z,10.00
2018-08-14T04:14:50.237Z,11.00
2018-08-14T04:15:55.176Z,8.60
2018-08-14T04:16:59.560Z,10.50
2018-08-14T04:18:09.857Z,10.00
2018-08-14T04:19:14.254Z,9.05
2018-08-14T04:20:18.610Z,10.20
2018-08-14T04:21:23.785Z,9.50
2018-08-14T04:22:28.369Z,10.68
2018-08-14T04:23:32.734Z,9.13
2018-08-14T04:24:37.184Z,8.80
2018-08-14T04:25:41.532Z,9.23
2018-08-14T04:26:46.138Z,9.38
2018-08-14T04:27:50.709Z,9.60
2018-08-14T04:28:55.173Z,8.40
2018-08-14T04:29:59.643Z,9.68
2018-08-14T04:31:04.269Z,9.35
2018-08-14T04:32:08.752Z,8.78
2018-08-14T04:33:13.116Z,9.55
2018-08-14T04:34:17.813Z,10.70
2018-08-14T04:35:22.050Z,8.80
2018-08-14T04:36:26.488Z,9.85
2018-08-14T04:37:30.781Z,8.63
2018-08-14T04:38:35.114Z,9.20
2018-08-14T04:39:39.912Z,8.90
2018-08-14T04:40:44.379Z,8.48
2018-08-14T04:41:48.791Z,10.00
2018-08-14T04:42:53.651Z,8.30
2018-08-14T04:43:57.868Z,8.10
2018-08-14T04:45:02.577Z,8.48
2018-08-14T04:46:07.272Z,10.23
2018-08-14T04:47:12.022Z,9.23
2018-08-14T04:48:16.417Z,7.92
2018-08-14T04:49:20.679Z,8.65
2018-08-14T04:50:25.001Z,9.15
2018-08-14T04:51:29.411Z,9.35
2018-08-14T04:52:33.834Z,9.00
2018-08-14T04:53:38.351Z,9.08
2018-08-14T04:54:42.627Z,9.55
2018-08-14T04:55:47.324Z,8.93
2018-08-14T04:56:51.783Z,8.05
2018-08-14T04:57:56.109Z,8.78
2018-08-14T04:59:00.572Z,8.40
2018-08-14T05:00:06.810Z,8.08
2018-08-14T05:01:11.518Z,9.05
2018-08-14T05:02:15.924Z,8.23
2018-08-14T05:03:20.467Z,7.60
2018-08-14T05:04:25.205Z,9.50
2018-08-14T05:05:29.682Z,8.18
2018-08-14T05:06:34.106Z,8.43
2018-08-14T05:07:38.827Z,7.78
2018-08-14T05:08:43.248Z,9.65
2018-08-14T05:09:47.555Z,7.75
2018-08-14T05:10:51.920Z,8.20
2018-08-14T05:11:56.178Z,7.80
2018-08-14T05:13:00.711Z,7.97
2018-08-14T05:14:05.080Z,8.78
2018-08-14T05:15:10.016Z,8.00
2018-08-14T05:16:14.631Z,8.58
2018-08-14T05:17:19.073Z,9.20
2018-08-14T05:18:23.411Z,8.28
2018-08-14T05:19:28.192Z,9.63
2018-08-14T05:20:32.828Z,9.85
2018-08-14T05:21:37.552Z,9.33
2018-08-14T05:22:42.910Z,10.30
2018-08-14T05:23:47.392Z,8.43
2018-08-14T05:24:51.839Z,10.60
2018-08-14T05:25:56.330Z,9.28
2018-08-14T05:27:00.881Z,9.75
2018-08-14T05:28:05.429Z,9.75
2018-08-14T05:29:09.760Z,9.13
2018-08-14T05:30:16.641Z,11.43
2018-08-14T05:31:21.241Z,11.28
2018-08-14T05:32:25.544Z,10.43
2018-08-14T05:33:30.011Z,10.60
2018-08-14T05:34:34.344Z,10.63
2018-08-14T05:35:40.305Z,10.23
2018-08-14T05:36:45.070Z,10.10
2018-08-14T05:37:49.767Z,10.00
2018-08-14T05:38:54.117Z,10.90
2018-08-14T05:39:58.505Z,11.33
2018-08-14T05:41:02.998Z,10.15
2018-08-14T05:42:07.481Z,9.80
2018-08-14T05:43:12.150Z,10.05
2018-08-14T05:44:22.775Z,10.48
2018-08-14T05:45:28.259Z,11.57
2018-08-14T05:46:32.599Z,11.25
2018-08-14T05:47:39.087Z,10.60
2018-08-14T05:48:50.097Z,11.70
2018-08-14T05:49:54.429Z,10.70
2018-08-14T05:50:58.865Z,10.30
2018-08-14T05:52:03.522Z,10.50
2018-08-14T05:53:08.836Z,11.78
2018-08-14T05:54:13.344Z,11.53
2018-08-14T05:55:17.740Z,13.30
2018-08-14T05:56:22.137Z,12.70
2018-08-14T05:57:26.593Z,14.25
2018-08-14T05:58:31.047Z,12.93
2018-08-14T05:59:36.191Z,11.55
2018-08-14T06:00:42.602Z,11.70
2018-08-14T06:01:47.442Z,12.40
2018-08-14T06:02:51.832Z,11.83
2018-08-14T06:03:56.343Z,13.35
2018-08-14T06:05:00.645Z,13.35
2018-08-14T06:06:05.161Z,13.50
2018-08-14T06:07:10.060Z,11.40
2018-08-14T06:08:14.493Z,13.72
2018-08-14T06:09:18.823Z,13.10
2018-08-14T06:10:23.396Z,14.43
2018-08-14T06:11:28.201Z,14.90
2018-08-14T06:12:34.909Z,16.10
2018-08-14T06:13:39.488Z,13.68
2018-08-14T06:14:44.122Z,14.73
2018-08-14T06:15:48.562Z,14.13
2018-08-14T06:16:53.152Z,13.65
2018-08-14T06:17:57.554Z,14.68
2018-08-14T06:19:02.226Z,14.83
2018-08-14T06:20:09.303Z,14.60
2018-08-14T06:21:13.844Z,13.70
2018-08-14T06:22:18.338Z,15.60
2018-08-14T06:23:23.131Z,15.72
2018-08-14T06:24:27.806Z,14.70
2018-08-14T06:25:32.172Z,13.95
2018-08-14T06:26:36.537Z,15.32
2018-08-14T06:27:41.449Z,14.75
2018-08-14T06:28:47.194Z,16.45
2018-08-14T06:29:51.944Z,15.68
2018-08-14T06:30:56.245Z,14.53
2018-08-14T06:32:00.751Z,15.70
2018-08-14T06:33:05.664Z,15.60
2018-08-14T06:34:10.175Z,15.98
2018-08-14T06:35:14.043Z,17.10
2018-08-14T06:36:58.402Z,18.23
2018-08-14T06:38:02.945Z,17.87
2018-08-14T06:39:12.370Z,20.10
2018-08-14T06:40:17.808Z,19.00
2018-08-14T06:41:22.129Z,17.48
2018-08-14T06:42:26.653Z,18.17
2018-08-14T06:43:31.105Z,18.25
2018-08-14T06:44:38.259Z,18.82
2018-08-14T06:45:42.654Z,18.62
2018-08-14T06:46:47.338Z,18.37
2018-08-14T06:47:51.823Z,18.35
2018-08-14T06:48:57.427Z,19.35
2018-08-14T06:50:03.272Z,18.50
2018-08-14T06:51:09.954Z,18.75
2018-08-14T06:52:14.341Z,18.20
2018-08-14T06:53:19.749Z,19.35
2018-08-14T06:54:24.104Z,18.73
2018-08-14T06:55:28.596Z,19.07
2018-08-14T06:56:33.065Z,20.77
2018-08-14T06:57:37.561Z,19.35
2018-08-14T06:58:42.025Z,20.30
2018-08-14T06:59:46.399Z,19.70
2018-08-14T07:00:50.758Z,21.00
2018-08-14T07:01:55.245Z,20.48
2018-08-14T07:02:59.538Z,21.05
2018-08-14T07:04:04.001Z,21.40
2018-08-14T07:05:09.479Z,22.85
2018-08-14T07:06:14.099Z,22.35
2018-08-14T07:07:18.584Z,21.30
2018-08-14T07:08:23.002Z,22.85
2018-08-14T07:09:27.834Z,21.87
2018-08-14T07:10:32.242Z,25.25
2018-08-14T07:11:36.721Z,24.70
2018-08-14T07:12:41.348Z,23.10
2018-08-14T07:13:46.115Z,23.12
2018-08-14T07:14:50.565Z,21.85
2018-08-14T07:15:55.016Z,23.32
2018-08-14T07:16:59.412Z,24.70
2018-08-14T07:18:04.393Z,25.50
2018-08-14T07:19:10.163Z,26.35
2018-08-14T07:20:14.767Z,23.77
2018-08-14T07:21:22.196Z,25.48
2018-08-14T07:22:26.612Z,23.55
2018-08-14T07:23:31.262Z,23.90
2018-08-14T07:24:35.704Z,24.05
2018-08-14T07:25:40.591Z,28.05
2018-08-14T07:26:45.380Z,24.00
2018-08-14T07:27:50.302Z,24.12
2018-08-14T07:28:54.845Z,24.82
2018-08-14T07:29:59.384Z,25.60
2018-08-14T07:31:03.921Z,25.95
2018-08-14T07:32:09.354Z,28.30
2018-08-14T07:33:14.132Z,28.75
2018-08-14T07:34:18.484Z,26.73
2018-08-14T07:35:23.022Z,27.55
2018-08-14T07:36:29.469Z,30.52
2018-08-14T07:37:34.444Z,27.30
2018-08-14T07:38:38.813Z,26.07
2018-08-14T07:39:43.213Z,24.27
2018-08-14T07:40:47.551Z,28.55
2018-08-14T07:41:52.091Z,27.98
2018-08-14T07:42:56.514Z,27.45
2018-08-14T07:44:02.534Z,29.30
2018-08-14T07:45:08.442Z,25.27
2018-08-14T07:46:12.996Z,25.43
2018-08-14T07:47:17.523Z,26.23
2018-08-14T07:48:22.017Z,27.73
2018-08-14T07:49:26.533Z,26.95
2018-08-14T07:50:31.111Z,26.82
2018-08-14T07:51:35.572Z,25.30
2018-08-14T07:52:41.011Z,24.92
2018-08-14T07:53:45.543Z,25.68
2018-08-14T07:54:49.887Z,25.90
2018-08-14T07:55:55.143Z,24.95
2018-08-14T07:56:59.525Z,25.85
2018-08-14T07:58:04.100Z,26.00
2018-08-14T07:59:09.319Z,26.23
2018-08-14T08:00:17.151Z,26.27
2018-08-14T08:01:23.589Z,26.10
2018-08-14T08:02:28.040Z,25.00
2018-08-14T08:03:32.869Z,25.55
2018-08-14T08:04:37.372Z,25.90
2018-08-14T08:05:42.065Z,28.35
2018-08-14T08:06:47.109Z,24.47
2018-08-14T08:07:51.921Z,26.42
2018-08-14T08:08:56.673Z,25.80
2018-08-14T08:10:01.282Z,26.33
2018-08-14T08:11:06.053Z,27.25
2018-08-14T08:12:10.667Z,25.43
2018-08-14T08:13:15.444Z,26.97
2018-08-14T08:14:19.907Z,26.02
2018-08-14T08:15:24.568Z,25.92
2018-08-14T08:16:30.603Z,27.90
2018-08-14T08:17:35.348Z,27.00
2018-08-14T08:18:41.552Z,26.10
2018-08-14T08:19:46.282Z,28.23
2018-08-14T08:20:51.097Z,25.10
2018-08-14T08:21:55.839Z,26.80
2018-08-14T08:23:02.410Z,26.30
2018-08-14T08:24:06.925Z,24.85
2018-08-14T08:25:11.517Z,25.97
2018-08-14T08:26:16.033Z,23.52
2018-08-14T08:27:20.428Z,25.45
2018-08-14T08:28:25.058Z,24.23
2018-08-14T08:29:29.815Z,25.27
2018-08-14T08:30:34.400Z,22.77
2018-08-14T08:31:38.883Z,25.85
2018-08-14T08:32:43.887Z,23.22
2018-08-14T08:33:48.807Z,24.82
2018-08-14T08:34:53.758Z,26.00
2018-08-14T08:35:58.278Z,24.87
2018-08-14T08:37:03.019Z,24.45
2018-08-14T08:38:07.375Z,24.12
2018-08-14T08:39:11.825Z,24.77
2018-08-14T08:40:16.706Z,25.48
2018-08-14T08:41:24.230Z,25.52
2018-08-14T08:42:29.312Z,25.17
2018-08-14T08:43:34.049Z,26.02
2018-08-14T08:44:38.474Z,26.75
2018-08-14T08:45:43.100Z,26.12
2018-08-14T08:46:48.085Z,25.27
2018-08-14T08:48:02.515Z,26.00
2018-08-14T08:49:07.029Z,26.00
2018-08-14T08:50:13.651Z,27.98
2018-08-14T08:51:18.552Z,27.32
2018-08-14T08:52:23.142Z,26.70
2018-08-14T08:53:28.095Z,27.93
2018-08-14T08:54:32.675Z,26.90
2018-08-14T08:55:37.309Z,27.70
2018-08-14T08:56:42.036Z,28.85
2018-08-14T08:57:46.891Z,28.10
2018-08-14T08:58:54.914Z,28.20
2018-08-14T08:59:59.867Z,28.15
2018-08-14T09:01:04.963Z,27.40
2018-08-14T09:02:09.662Z,28.62
2018-08-14T09:03:14.217Z,26.15
2018-08-14T09:04:18.866Z,27.10
2018-08-14T09:05:23.660Z,26.70
2018-08-14T09:06:28.590Z,28.27
2018-08-14T09:07:33.343Z,29.05
2018-08-14T09:08:38.034Z,28.42
2018-08-14T09:09:42.705Z,28.07
2018-08-14T09:10:47.336Z,27.07
2018-08-14T09:11:52.422Z,27.45
2018-08-14T09:12:57.510Z,27.25
2018-08-14T09:14:03.548Z,27.45
2018-08-14T09:15:13.282Z,28.47
2018-08-14T09:16:18.085Z,26.97
2018-08-14T09:17:22.831Z,25.35
2018-08-14T09:18:28.974Z,24.47
2018-08-14T09:19:38.988Z,26.40
2018-08-14T09:20:43.772Z,26.20
2018-08-14T09:21:48.211Z,26.80
2018-08-14T09:22:53.123Z,26.82
2018-08-14T09:23:57.830Z,27.87
2018-08-14T09:25:03.315Z,25.35
2018-08-14T09:26:07.970Z,27.10
2018-08-14T09:27:12.364Z,26.10
2018-08-14T09:28:16.823Z,26.10
2018-08-14T09:29:21.680Z,24.30
2018-08-14T09:30:26.221Z,24.50
2018-08-14T09:31:31.677Z,23.22
2018-08-14T09:32:36.341Z,27.02
2018-08-14T09:33:41.008Z,22.95
2018-08-14T09:34:45.503Z,23.40
2018-08-14T09:35:50.258Z,24.32
2018-08-14T09:36:55.117Z,25.08
2018-08-14T09:37:59.761Z,22.65
2018-08-14T09:39:07.728Z,21.35
2018-08-14T09:40:16.450Z,20.37
2018-08-14T09:41:22.278Z,18.77
2018-08-14T09:42:26.740Z,20.88
2018-08-14T09:43:31.121Z,20.60
2018-08-14T09:44:35.486Z,20.43
2018-08-14T09:45:40.000Z,17.92
2018-08-14T09:46:44.745Z,18.40
2018-08-14T09:47:49.370Z,19.62
2018-08-14T09:48:55.010Z,17.98
2018-08-14T09:49:59.534Z,18.05
2018-08-14T09:51:04.070Z,17.82
2018-08-14T09:52:08.485Z,17.50
2018-08-14T09:53:13.273Z,16.93
2018-08-14T09:54:17.733Z,17.90
2018-08-14T09:55:22.468Z,17.87
2018-08-14T09:56:27.368Z,21.20
2018-08-14T09:57:32.056Z,17.67
2018-08-14T09:58:36.939Z,15.13
2018-08-14T09:59:41.327Z,16.67
2018-08-14T10:00:51.000Z,16.05
2018-08-14T10:02:00.586Z,15.48
2018-08-14T10:03:17.914Z,18.77
2018-08-14T10:04:27.019Z,15.80
2018-08-14T10:05:36.859Z,13.95
2018-08-14T10:06:47.534Z,14.60
2018-08-14T10:07:57.267Z,14.00
2018-08-14T10:09:02.534Z,18.57
2018-08-14T10:10:12.518Z,16.65
2018-08-14T10:11:17.363Z,15.40
2018-08-14T10:12:21.850Z,18.40
2018-08-14T10:13:26.420Z,16.85
2018-08-14T10:14:35.957Z,13.70
2018-08-14T10:15:41.129Z,11.40
2018-08-14T10:16:45.810Z,13.90
2018-08-14T10:17:50.360Z,12.03
2018-08-14T10:18:56.917Z,12.55
2018-08-14T10:20:01.609Z,12.60
2018-08-14T10:21:06.307Z,13.40
2018-08-14T10:22:11.395Z,14.05
2018-08-14T10:23:16.163Z,13.25
2018-08-14T10:24:20.546Z,13.98
2018-08-14T10:25:25.167Z,14.55
2018-08-14T10:26:29.714Z,13.28
2018-08-14T10:27:34.363Z,14.35
2018-08-14T10:28:44.504Z,13.60
2018-08-14T10:29:49.104Z,14.00
2018-08-14T10:30:53.951Z,13.40
2018-08-14T10:31:58.886Z,13.78
2018-08-14T10:33:03.661Z,13.85
2018-08-14T10:34:08.540Z,12.95
2018-08-14T10:35:13.328Z,13.38
2018-08-14T10:36:17.963Z,12.65
2018-08-14T10:37:23.958Z,13.28
2018-08-14T10:38:28.541Z,11.90
2018-08-14T10:39:33.058Z,13.43
2018-08-14T10:40:38.020Z,12.78
2018-08-14T10:41:44.111Z,11.70
2018-08-14T10:42:48.434Z,12.15
2018-08-14T10:43:53.639Z,12.80
2018-08-14T10:44:59.698Z,12.58
2018-08-14T10:46:04.547Z,12.40
2018-08-14T10:47:09.406Z,10.72
2018-08-14T10:48:13.921Z,10.80
2018-08-14T10:49:20.447Z,10.82
2018-08-14T10:50:26.273Z,11.05
2018-08-14T10:51:32.020Z,11.15
2018-08-14T10:53:55.005Z,10.10
2018-08-14T10:54:59.451Z,11.40
2018-08-14T10:56:04.125Z,10.32
2018-08-14T10:57:08.816Z,10.30
2018-08-14T10:58:13.744Z,10.23
2018-08-14T10:59:19.279Z,11.25
2018-08-14T11:00:26.431Z,10.38
2018-08-14T11:01:32.012Z,9.85
2018-08-14T11:02:36.746Z,10.20
2018-08-14T11:03:41.749Z,10.75
2018-08-14T11:04:46.329Z,9.68
2018-08-14T11:05:50.926Z,9.48
2018-08-14T11:06:55.455Z,10.68
2018-08-14T11:07:59.899Z,11.05
2018-08-14T11:09:06.669Z,10.23
2018-08-14T11:10:14.908Z,9.78
2018-08-14T11:11:20.853Z,9.30
2018-08-14T11:12:25.388Z,9.90
2018-08-14T11:13:29.799Z,8.43
2018-08-14T11:14:34.305Z,8.20
2018-08-14T11:15:38.918Z,7.55
2018-08-14T11:16:45.226Z,8.05
2018-08-14T11:17:49.794Z,7.15
2018-08-14T11:18:54.571Z,7.80
2018-08-14T11:19:59.349Z,8.15
2018-08-14T11:21:05.948Z,6.70
2018-08-14T11:22:11.531Z,7.80
2018-08-14T11:23:16.612Z,8.30
2018-08-14T11:24:21.436Z,7.60
2018-08-14T11:25:25.823Z,6.35
2018-08-14T11:26:34.664Z,7.72
2018-08-14T11:27:39.772Z,7.45
2018-08-14T11:28:44.287Z,5.75
2018-08-14T11:29:48.767Z,6.87
2018-08-14T11:30:53.516Z,7.50
2018-08-14T11:31:58.100Z,6.20
2018-08-14T11:33:02.531Z,6.58
2018-08-14T11:34:08.275Z,5.90
2018-08-14T11:35:12.749Z,5.12
2018-08-14T11:36:17.336Z,5.30
2018-08-14T11:37:21.764Z,5.12
2018-08-14T11:38:26.238Z,4.85
2018-08-14T11:39:31.527Z,5.55
2018-08-14T11:40:35.979Z,4.10
2018-08-14T11:41:45.199Z,3.87
2018-08-14T11:42:49.628Z,3.77
2018-08-14T11:43:54.479Z,4.08
2018-08-14T11:44:59.155Z,4.78
2018-08-14T11:46:04.086Z,2.72
2018-08-14T11:47:11.089Z,3.17
2018-08-14T11:48:15.894Z,4.05
2018-08-14T11:49:23.125Z,3.87
2018-08-14T11:50:27.735Z,4.30
2018-08-14T11:51:32.194Z,4.37
2018-08-14T11:52:36.517Z,3.33
2018-08-14T11:53:42.453Z,4.70
2018-08-14T11:54:46.936Z,3.83
2018-08-14T11:55:52.258Z,5.20
2018-08-14T11:57:11.742Z,4.50
2018-08-14T11:58:16.600Z,3.60
2018-08-14T11:59:23.345Z,4.25
2018-08-14T12:00:28.051Z,2.90
2018-08-14T12:01:32.651Z,3.25
2018-08-14T12:02:38.276Z,3.62
2018-08-14T12:03:42.770Z,3.40
2018-08-14T12:04:47.187Z,3.35
2018-08-14T12:05:51.805Z,3.40
2018-08-14T12:06:56.780Z,2.35
2018-08-14T12:08:02.227Z,2.35
2018-08-14T12:09:09.898Z,2.77
2018-08-14T12:10:19.153Z,2.47
2018-08-14T12:11:24.644Z,2.52
2018-08-14T12:12:29.509Z,3.12
2018-08-14T12:13:33.945Z,2.80
2018-08-14T12:14:38.381Z,2.92
2018-08-14T12:15:42.812Z,2.98
2018-08-14T12:16:47.436Z,3.60
2018-08-14T12:17:51.880Z,3.05
2018-08-14T12:18:56.509Z,2.92
2018-08-14T12:20:01.670Z,3.90
2018-08-14T12:21:06.089Z,3.87
2018-08-14T12:22:11.777Z,4.42
2018-08-14T12:23:16.246Z,3.20
2018-08-14T12:24:20.828Z,4.35
2018-08-14T12:25:25.281Z,5.22
2018-08-14T12:26:30.003Z,4.17
2018-08-14T12:27:35.478Z,5.20
2018-08-14T12:28:39.830Z,2.98
2018-08-14T12:29:44.808Z,2.37
2018-08-14T12:30:49.550Z,4.47
2018-08-14T12:31:54.193Z,2.92
2018-08-14T12:32:58.918Z,3.30
2018-08-14T12:34:03.435Z,2.85
2018-08-14T12:35:08.814Z,4.40
2018-08-14T12:36:13.754Z,3.40
2018-08-14T12:37:18.321Z,3.45
2018-08-14T12:38:23.281Z,2.85
2018-08-14T12:39:28.474Z,2.87
2018-08-14T12:40:33.072Z,2.70
2018-08-14T12:41:37.564Z,3.25
2018-08-14T12:42:43.784Z,2.30
2018-08-14T12:43:49.020Z,2.70
2018-08-14T12:44:55.882Z,2.67
2018-08-14T12:46:00.372Z,3.00
2018-08-14T12:47:04.907Z,2.30
2018-08-14T12:48:10.224Z,2.85
2018-08-14T12:49:14.879Z,2.80
2018-08-14T12:50:20.594Z,2.40
2018-08-14T12:51:25.014Z,2.50
2018-08-14T12:52:30.220Z,2.33
2018-08-14T12:53:36.665Z,2.47
2018-08-14T12:54:41.537Z,2.45
2018-08-14T12:55:46.045Z,2.72
2018-08-14T12:56:50.496Z,2.50
2018-08-14T12:57:55.226Z,2.60
2018-08-14T12:58:59.900Z,2.80
2018-08-14T13:00:06.431Z,2.85
2018-08-14T13:01:10.970Z,2.33
2018-08-14T13:02:17.162Z,2.60
2018-08-14T13:03:22.008Z,2.72
2018-08-14T13:04:26.401Z,3.00
2018-08-14T13:05:31.077Z,3.10
2018-08-14T13:06:35.850Z,2.90
2018-08-14T13:07:40.752Z,3.42
2018-08-14T13:08:45.518Z,4.78
2018-08-14T13:09:49.904Z,4.72
2018-08-14T13:10:56.222Z,2.72
2018-08-14T13:12:01.954Z,2.75
2018-08-14T13:13:09.246Z,4.75
2018-08-14T13:14:15.173Z,3.37
2018-08-14T13:15:21.360Z,4.22
2018-08-14T13:16:27.225Z,4.08
2018-08-14T13:17:32.435Z,5.10
2018-08-14T13:18:37.290Z,5.60
2018-08-14T13:19:42.201Z,5.15
2018-08-14T13:20:54.268Z,9.18
2018-08-14T13:22:05.279Z,8.08
2018-08-14T13:23:14.748Z,7.55
2018-08-14T13:24:20.157Z,5.37
2018-08-14T13:25:25.969Z,4.80
2018-08-14T13:26:32.350Z,4.72
2018-08-14T13:27:42.450Z,8.28
2018-08-14T13:28:50.173Z,6.60
2018-08-14T13:29:58.377Z,8.08
2018-08-14T13:31:04.314Z,5.70
2018-08-14T13:32:12.033Z,5.40
2018-08-14T13:33:18.261Z,3.05
2018-08-14T13:34:22.833Z,3.60
2018-08-14T13:35:27.294Z,3.05
2018-08-14T13:36:33.319Z,2.62
2018-08-14T13:37:38.222Z,3.40
2018-08-14T13:38:51.098Z,3.50
2018-08-14T13:40:00.671Z,5.00
2018-08-14T13:41:06.593Z,3.33
2018-08-14T13:42:13.686Z,2.80
2018-08-14T13:43:20.346Z,5.58
2018-08-14T13:44:29.164Z,9.90
2018-08-14T13:45:35.129Z,7.78
2018-08-14T13:46:45.492Z,4.85
2018-08-14T13:47:52.334Z,4.80
2018-08-14T13:48:58.014Z,3.90
2018-08-14T13:50:05.077Z,4.20
2018-08-14T13:51:12.630Z,2.20
2018-08-14T13:52:23.807Z,3.72
2018-08-14T13:53:32.746Z,3.15
2018-08-14T13:54:38.637Z,5.75
2018-08-14T13:55:44.348Z,3.60
2018-08-14T13:56:50.435Z,4.08
2018-08-14T13:57:56.316Z,3.90
2018-08-14T13:59:04.335Z,4.95
2018-08-14T14:00:13.871Z,3.20
2018-08-14T14:01:18.525Z,3.47
2018-08-14T14:02:24.160Z,3.50
2018-08-14T14:03:31.074Z,3.75
2018-08-14T14:04:41.003Z,4.75
2018-08-14T14:05:47.121Z,2.95
2018-08-14T14:06:51.761Z,4.50
2018-08-14T14:07:56.636Z,3.37
2018-08-14T14:09:01.291Z,3.90
2018-08-14T14:10:07.870Z,5.95
2018-08-14T14:11:12.142Z,4.92
2018-08-14T14:12:16.860Z,4.28
2018-08-14T14:13:21.461Z,7.22
2018-08-14T14:14:26.031Z,5.92
2018-08-14T14:15:30.482Z,4.33
2018-08-14T14:16:35.674Z,5.20
2018-08-14T14:17:43.023Z,4.83
2018-08-14T14:18:54.117Z,5.60
2018-08-14T14:20:00.251Z,7.92
2018-08-14T14:21:06.246Z,10.75